Farmington, MO

5:01 PM CDT on July 30, 2014 (GMT -0500)
Sparta Community-Hunter (KSAR) Elev 538 ft | 38.15 °N, 89.70 °W | Change Station

Current weather conditions updated 6 minutes ago

Overcast
Overcast
77 °F
Feels Like 77 °F
N
10
Wind Variable Wind from SW

Tomorrow is forecast to be nearly the same temperature as today. Chance of afternoon showers.

Today
High -- | Low -- °F
--% Chance of Precip.
Yesterday
High -- | Low -- °F
Precip. -- in
6:03 AM 8:12 PM
Waxing Crescent, 14% visible
Pressure 30.07 in
Visibility 10.0 miles
Clouds Overcast 10000 ft
Dew Point 61 °F
Humidity 57%
Rainfall 0.00 in
Snow Depth Not available.
UV 1 out of 12
Pollen 6.70 out of 12
Air Quality Not available.
Flu Activity Not available.
METAR KSAR 302155Z AUTO 23009KT 10SM OVC100 25/16 A3007 RMK AO2

More Conditions Fewer Conditions

Pressure 30.07 in
Visibility 10.0 miles
Clouds Overcast 10000 ft
Dew Point 61 °F
Humidity 57%
Rainfall 0.00 in
Snow Depth Not available.
UV 1 out of 12
Pollen 6.70 out of 12
Air Quality Not available.
Flu Activity Not available.
METAR KSAR 302155Z AUTO 23009KT 10SM OVC100 25/16 A3007 RMK AO2

More Conditions Fewer Conditions

10-Day Weather Forecast

Almanac

Astronomy

Jul. 30, 2014 Rise Set
Actual Time 6:03 AM CDT 8:12 PM CDT
Civil Twilight 5:34 AM CDT 8:41 PM CDT
Nautical Twilight 4:58 AM CDT 9:17 PM CDT
Astronomical Twilight 4:19 AM CDT 9:55 PM CDT
Moon 9:30 AM CDT 10:00 PM CDT
Length of Visible Light 15h 07m
Length of Day
14h 08m
Tomorrow will be 1m 48s shorter.
Waxing Crescent, 14% of the Moon is Illuminated
Today
Waxing Crescent
Aug 3
First Quarter
Aug 10
Full
Aug 17
Last Quarter
Aug 25
New

Today's Extremes

State Highs State Lows

Community

WunderPhotos

Upload Photos

1,739,219 photos uploaded!

WunderBlogs® & News

Nearby

Snow Depth

Station Depth Elevation
No new snow has been reported.

Earthquake Activity

City Distance Mag. Time & Date
No recent earthquake activity has been reported nearby.
Minimum magnitude displayed is 2.5.

Coastal Water Temperatures

Place Temperature
No Stations Reporting

Nearby Weather Stations

Station Location Temp. Heat Index Dew Point Humidity Wind Precip. Elev Updated Type
RAWS FARMINGTON MO, French Village, MO 77 °F 79 °F 61 °F 58% SW  at  5 mph 0.00 in / hr 945 ft 4:00 PM CDT MADIS
Park Hills, Park Hills, MO 81.5 °F 84 °F 66 °F 59% North  at  0.0 mph 0.00 in / hr 823 ft 3:07 PM CDT Rapid Fire
TurtleCreekFarm, Bismarck, MO 74.5 °F 76 °F 65 °F 73% West  at  0.0 mph 0.00 in / hr 1040 ft 5:01 PM CDT Normal
Bismarck, MO 75.4 °F 77 °F 64 °F 67% SSE  at  1.0 mph 0.00 in / hr 1000 ft 4:55 PM CDT Normal
Lake Forest, Ste Genevieve, MO 81.1 °F 79 °F 20 °F 10% South  at  3.8 mph 0.00 in / hr 522 ft 5:01 PM CDT Rapid Fire
MesoWest MNERPT , Mineral Point, MO 78 °F 76 °F - - North  at  - 0.00 in / hr 958 ft 3:00 PM CDT MADIS
Ste Genevieve county, Festus, MO 77.7 °F - - - North  at  - 0.00 in / hr 705 ft 5:01 PM CDT Normal

Show More Stations Show Fewer Stations